Time;durP1;ratioP1;P1;durP2;ratioP2;P2;SDS_P1;SDS_P2;PMS_P1;PMS_P2;Temp;Humidity;BMP_temperature;BMP_pressure;BME280_temperature;BME280_humidity;BME280_pressure;Samples;Min_cycle;Max_cycle;Signal;HPM_P1;HPM_P2
2022/10/27 00:02:15;;;;;;;;;;;;;;;12.47;74.30;99923.44;5193429;28;19964;-84
2022/10/27 00:05:06;;;;;;;;;;;;;;;12.58;74.42;99923.34;5194066;28;19987;-83
2022/10/27 00:07:56;;;;;;;;;;;;;;;12.86;74.79;99923.56;5194021;28;19967;-84
2022/10/27 00:11:06;;;;;;;;;;;;;;;12.74;73.40;99916.66;5192199;28;20421;-84
2022/10/27 00:13:56;;;;;;;;;;;;;;;12.49;73.68;99918.00;5180020;28;20426;-84
2022/10/27 00:16:53;;;;;;;;;;;;;;;12.60;73.44;99923.19;5193963;28;19928;-84
2022/10/27 00:19:43;;;;;;;;;;;;;;;12.47;73.25;99918.09;5208103;28;19943;-83
2022/10/27 00:22:33;;;;;;;;;;;;;;;12.48;73.17;99913.63;5206270;28;19929;-83
2022/10/27 00:25:23;;;;;;;;;;;;;;;12.44;74.05;99919.22;5192659;28;19975;-84
2022/10/27 00:28:13;;;;;;;;;;;;;;;12.49;72.89;99924.16;5192303;28;19928;-85
2022/10/27 00:31:11;;;;;;;;;;;;;;;12.36;72.78;99921.69;5169419;28;19989;-84
2022/10/27 00:34:01;;;;;;;;;;;;;;;12.29;72.63;99927.69;5152996;28;19968;-84
2022/10/27 00:36:51;;;;;;;;;;;;;;;12.27;72.83;99932.28;5153118;28;19928;-84
2022/10/27 00:39:41;;;;;;;;;;;;;;;12.26;72.18;99941.25;5154436;28;20291;-84
2022/10/27 00:42:30;;;;;;;;;;;;;;;12.22;72.19;99936.19;5183818;28;19943;-84
2022/10/27 00:45:20;;;;;;;;;;;;;;;12.26;72.45;99935.94;5201395;28;20061;-85
2022/10/27 00:48:10;;;;;;;;;;;;;;;12.24;72.43;99933.38;5203163;28;20482;-84
2022/10/27 00:51:01;;;;;;;;;;;;;;;12.23;72.38;99939.69;5199786;28;19921;-84
2022/10/27 00:53:53;;;;;;;;;;;;;;;12.22;72.20;99930.88;5194484;28;19988;-84
2022/10/27 00:56:44;;;;;;;;;;;;;;;12.11;73.10;99944.22;5175006;28;19921;-84
2022/10/27 00:59:35;;;;;;;;;;;;;;;12.08;72.39;99949.78;5195955;28;19956;-84
2022/10/27 01:02:25;;;;;;;;;;;;;;;12.20;72.59;99942.59;5187908;28;20391;-85
2022/10/27 01:05:24;;;;;;;;;;;;;;;12.12;72.57;99940.59;5195609;28;19996;-84
2022/10/27 01:08:16;;;;;;;;;;;;;;;12.01;72.56;99940.66;5195594;28;20079;-84
2022/10/27 01:11:06;;;;;;;;;;;;;;;12.10;73.06;99937.22;5190024;28;19944;-84
2022/10/27 01:13:56;;;;;;;;;;;;;;;12.10;73.49;99941.72;5181444;28;20378;-84
2022/10/27 01:16:54;;;;;;;;;;;;;;;12.19;73.58;99936.44;5211428;28;19927;-84
2022/10/27 01:19:43;;;;;;;;;;;;;;;12.29;74.04;99935.66;5195963;28;19943;-84
2022/10/27 01:22:52;;;;;;;;;;;;;;;12.36;74.41;99931.50;5196852;28;19921;-84
2022/10/27 01:26:00;;;;;;;;;;;;;;;12.46;74.98;99929.72;5212894;28;19943;-85
2022/10/27 01:28:53;;;;;;;;;;;;;;;12.54;73.38;99931.72;5187427;28;19951;-84
2022/10/27 01:31:49;;;;;;;;;;;;;;;12.52;74.33;99933.69;5198076;28;20310;-84
2022/10/27 01:34:45;;;;;;;;;;;;;;;12.45;73.80;99931.56;5199466;28;19932;-84
2022/10/27 01:37:44;;;;;;;;;;;;;;;12.42;72.96;99941.63;5186409;28;19921;-84
2022/10/27 01:40:45;;;;;;;;;;;;;;;12.18;73.05;99932.09;5217791;28;19935;-84
2022/10/27 01:43:35;;;;;;;;;;;;;;;12.13;74.19;99926.34;5190679;28;19943;-84
2022/10/27 01:46:25;;;;;;;;;;;;;;;12.43;73.75;99930.84;5173900;28;19975;-85
2022/10/27 01:49:15;;;;;;;;;;;;;;;12.30;73.56;99918.72;5196477;28;20296;-84
2022/10/27 01:52:06;;;;;;;;;;;;;;;12.25;73.61;99928.91;5196023;28;19928;-84
2022/10/27 01:54:56;;;;;;;;;;;;;;;12.15;73.29;99919.09;5196654;28;19979;-85
2022/10/27 01:57:46;;;;;;;;;;;;;;;12.07;73.78;99918.88;5183164;28;19932;-84
2022/10/27 02:01:03;;;;;;;;;;;;;;;12.12;73.01;99910.50;5192073;28;19921;-85
2022/10/27 02:04:03;;;;;;;;;;;;;;;11.85;73.57;99911.03;5164736;28;19928;-85
2022/10/27 02:06:59;;;;;;;;;;;;;;;11.89;73.10;99915.97;5182904;28;19928;-83
2022/10/27 02:09:58;;;;;;;;;;;;;;;11.94;73.38;99921.72;5184344;28;20463;-84
2022/10/27 02:12:49;;;;;;;;;;;;;;;11.93;73.10;99917.41;5192894;28;19932;-84
2022/10/27 02:15:42;;;;;;;;;;;;;;;11.90;73.37;99925.63;5196423;28;19960;-84
2022/10/27 02:18:34;;;;;;;;;;;;;;;12.03;73.50;99919.28;5199402;28;19993;-84
2022/10/27 02:21:24;;;;;;;;;;;;;;;11.92;73.68;99917.50;5199979;28;20397;-84
2022/10/27 02:24:14;;;;;;;;;;;;;;;11.93;73.27;99914.75;5197914;28;19921;-84
2022/10/27 02:27:10;;;;;;;;;;;;;;;12.03;73.54;99917.47;5212644;28;20406;-85
2022/10/27 02:30:02;;;;;;;;;;;;;;;11.96;73.93;99911.00;5200939;28;19999;-84
2022/10/27 02:32:52;;;;;;;;;;;;;;;11.97;73.64;99913.50;5210638;28;19927;-84
2022/10/27 02:35:43;;;;;;;;;;;;;;;11.90;73.31;99922.13;5195924;28;19921;-84
2022/10/27 02:38:36;;;;;;;;;;;;;;;11.75;73.42;99913.59;5197391;28;19994;-85
2022/10/27 02:41:26;;;;;;;;;;;;;;;11.66;73.20;99917.03;5197143;28;19943;-84
2022/10/27 02:44:16;;;;;;;;;;;;;;;11.49;74.08;99916.63;5194785;28;19993;-84
2022/10/27 02:47:06;;;;;;;;;;;;;;;11.47;74.77;99921.22;5212171;28;19936;-84
2022/10/27 02:49:59;;;;;;;;;;;;;;;11.58;73.67;99920.31;5200293;28;20166;-84
2022/10/27 02:52:49;;;;;;;;;;;;;;;11.63;73.17;99919.94;5199805;28;19928;-84
2022/10/27 02:55:39;;;;;;;;;;;;;;;11.74;76.39;99925.19;5191967;28;20018;-84
2022/10/27 02:58:29;;;;;;;;;;;;;;;11.84;74.90;99928.78;5190581;28;20030;-84
2022/10/27 03:01:19;;;;;;;;;;;;;;;11.80;73.19;99935.31;5176881;28;20067;-84
2022/10/27 03:04:09;;;;;;;;;;;;;;;11.63;73.23;99942.03;5164158;28;20088;-83
2022/10/27 03:06:59;;;;;;;;;;;;;;;11.59;73.10;99924.69;5150928;28;19948;-84
2022/10/27 03:09:49;;;;;;;;;;;;;;;11.39;72.81;99938.72;5164638;28;19929;-84
2022/10/27 03:12:39;;;;;;;;;;;;;;;11.38;73.02;99937.91;5194239;23;19925;-75
2022/10/27 03:15:29;;;;;;;;;;;;;;;11.37;72.44;99933.56;5181071;28;20080;-75
2022/10/27 03:18:18;;;;;;;;;;;;;;;11.34;72.96;99930.31;5201502;28;19932;-74
2022/10/27 03:21:08;;;;;;;;;;;;;;;11.43;73.62;99921.59;5202296;28;20072;-74
2022/10/27 03:23:58;;;;;;;;;;;;;;;11.41;73.44;99923.53;5216425;28;19968;-75
2022/10/27 03:26:47;;;;;;;;;;;;;;;11.31;73.56;99930.56;5201646;28;19929;-75
2022/10/27 03:29:37;;;;;;;;;;;;;;;11.46;73.25;99922.19;5202521;28;19929;-75
2022/10/27 03:32:27;;;;;;;;;;;;;;;11.42;72.29;99927.84;5206122;28;19921;-75
2022/10/27 03:35:18;;;;;;;;;;;;;;;11.29;72.63;99928.88;5206304;28;19976;-75
2022/10/27 03:38:08;;;;;;;;;;;;;;;11.21;72.79;99933.13;5204838;28;20397;-75
2022/10/27 03:40:58;;;;;;;;;;;;;;;11.10;73.56;99925.22;5205969;28;19928;-75
2022/10/27 03:43:48;;;;;;;;;;;;;;;11.10;73.59;99923.38;5204024;28;20299;-76
2022/10/27 03:46:37;;;;;;;;;;;;;;;11.14;73.31;99923.97;5215923;28;19928;-75
2022/10/27 03:49:28;;;;;;;;;;;;;;;11.12;73.44;99912.63;5218896;28;19959;-74
2022/10/27 03:52:18;;;;;;;;;;;;;;;11.00;73.18;99917.97;5205818;28;20009;-75
2022/10/27 03:55:08;;;;;;;;;;;;;;;10.94;73.22;99915.81;5205976;28;19921;-75
2022/10/27 03:57:58;;;;;;;;;;;;;;;11.00;73.27;99919.78;5204367;28;19983;-75
2022/10/27 04:00:48;;;;;;;;;;;;;;;11.01;72.93;99926.78;5199050;28;19921;-76
2022/10/27 04:03:38;;;;;;;;;;;;;;;11.05;73.50;99930.88;5184386;28;19929;-75
2022/10/27 04:06:29;;;;;;;;;;;;;;;11.12;73.22;99929.41;5185081;28;20066;-75
2022/10/27 04:09:19;;;;;;;;;;;;;;;11.04;73.08;99937.16;5185432;28;20474;-76
2022/10/27 04:12:08;;;;;;;;;;;;;;;10.95;73.20;99938.72;5195983;28;20299;-74
2022/10/27 04:14:58;;;;;;;;;;;;;;;10.80;73.34;99940.81;5206020;28;19944;-74
2022/10/27 04:17:51;;;;;;;;;;;;;;;10.88;73.53;99942.84;5203893;28;20398;-74
2022/10/27 04:20:41;;;;;;;;;;;;;;;10.81;72.76;99937.19;5199956;28;20058;-75
2022/10/27 04:23:31;;;;;;;;;;;;;;;10.82;72.79;99925.59;5204267;28;19928;-75
2022/10/27 04:26:21;;;;;;;;;;;;;;;10.88;72.62;99934.03;5205217;28;20027;-74
2022/10/27 04:29:11;;;;;;;;;;;;;;;10.78;72.41;99933.94;5205034;28;19932;-74
2022/10/27 04:32:01;;;;;;;;;;;;;;;10.77;72.18;99932.25;5204524;28;20410;-74
2022/10/27 04:34:51;;;;;;;;;;;;;;;10.81;74.01;99931.03;5204763;28;20090;-74
2022/10/27 04:37:40;;;;;;;;;;;;;;;10.90;74.13;99932.97;5202925;28;19944;-75
2022/10/27 04:40:30;;;;;;;;;;;;;;;10.91;74.54;99937.28;5189902;28;19928;-75
2022/10/27 04:43:20;;;;;;;;;;;;;;;10.93;73.77;99934.53;5205026;28;19953;-75
2022/10/27 04:46:10;;;;;;;;;;;;;;;10.66;74.13;99941.06;5203852;28;19928;-75
2022/10/27 04:49:00;;;;;;;;;;;;;;;10.76;74.11;99938.50;5184237;28;19921;-75
2022/10/27 04:51:50;;;;;;;;;;;;;;;10.88;74.07;99928.72;5184131;28;19928;-74
2022/10/27 04:54:40;;;;;;;;;;;;;;;10.86;74.21;99928.00;5189297;28;19932;-75
2022/10/27 04:57:29;;;;;;;;;;;;;;;10.92;73.98;99935.47;5204919;28;19928;-74
2022/10/27 05:00:20;;;;;;;;;;;;;;;10.95;75.13;99937.88;5201860;28;20051;-74
2022/10/27 05:03:10;;;;;;;;;;;;;;;10.94;74.32;99936.19;5204608;28;19929;-74
2022/10/27 05:06:00;;;;;;;;;;;;;;;10.98;74.22;99932.34;5203367;28;19928;-73
2022/10/27 05:08:50;;;;;;;;;;;;;;;11.12;74.09;99934.69;5186894;28;19952;-76
2022/10/27 05:11:40;;;;;;;;;;;;;;;11.04;74.79;99926.53;5183336;28;19968;-73
2022/10/27 05:14:30;;;;;;;;;;;;;;;11.13;74.81;99925.78;5198682;28;19925;-72
2022/10/27 05:17:20;;;;;;;;;;;;;;;11.15;75.80;99929.16;5203027;28;19928;-72
2022/10/27 05:20:15;;;;;;;;;;;;;;;11.32;75.64;99925.13;5204341;28;19931;-72
2022/10/27 05:23:05;;;;;;;;;;;;;;;11.37;75.84;99922.94;5203886;28;19947;-72
2022/10/27 05:25:55;;;;;;;;;;;;;;;11.33;74.54;99928.63;5204062;28;19971;-73
2022/10/27 05:28:46;;;;;;;;;;;;;;;11.27;74.71;99930.81;5188529;28;19932;-72
2022/10/27 05:31:36;;;;;;;;;;;;;;;11.29;74.92;99931.53;5202400;28;19928;-74
2022/10/27 05:34:26;;;;;;;;;;;;;;;11.20;74.42;99923.50;5203908;28;19936;-73
2022/10/27 05:37:16;;;;;;;;;;;;;;;11.35;74.70;99926.69;5203005;28;19928;-71
2022/10/27 05:40:06;;;;;;;;;;;;;;;11.40;74.79;99916.53;5193605;28;19944;-73
2022/10/27 05:42:56;;;;;;;;;;;;;;;11.39;74.29;99914.84;5198522;28;19928;-72
2022/10/27 05:45:46;;;;;;;;;;;;;;;11.44;74.91;99907.34;5216828;28;19921;-73
2022/10/27 05:48:36;;;;;;;;;;;;;;;11.44;74.53;99910.00;5203290;28;19983;-73
2022/10/27 05:51:26;;;;;;;;;;;;;;;11.32;74.71;99911.00;5216317;28;19932;-73
2022/10/27 05:54:16;;;;;;;;;;;;;;;11.50;74.01;99913.00;5203262;28;20454;-73
2022/10/27 05:57:06;;;;;;;;;;;;;;;11.50;74.42;99913.00;5200109;28;19931;-74
2022/10/27 05:59:56;;;;;;;;;;;;;;;11.29;74.79;99909.44;5198867;28;19928;-71
2022/10/27 06:02:45;;;;;;;;;;;;;;;11.41;74.69;99919.06;5203419;28;19928;-71
2022/10/27 06:05:35;;;;;;;;;;;;;;;11.35;74.40;99924.03;5202707;28;19929;-72
2022/10/27 06:08:26;;;;;;;;;;;;;;;11.28;74.28;99924.53;5168915;28;19928;-72
2022/10/27 06:11:16;;;;;;;;;;;;;;;11.25;74.33;99924.78;5164068;28;20014;-73
2022/10/27 06:14:07;;;;;;;;;;;;;;;11.23;73.46;99925.91;5183137;28;21430;-74
2022/10/27 06:16:58;;;;;;;;;;;;;;;11.18;73.42;99922.75;5180650;28;19936;-71
2022/10/27 06:19:48;;;;;;;;;;;;;;;11.04;73.83;99930.03;5181679;28;20094;-73
2022/10/27 06:22:38;;;;;;;;;;;;;;;11.07;73.63;99936.06;5187274;28;20489;-71
2022/10/27 06:25:28;;;;;;;;;;;;;;;11.02;73.19;99933.75;5188377;28;19932;-71
2022/10/27 06:28:18;;;;;;;;;;;;;;;10.98;73.56;99937.63;5181262;28;19928;-71
2022/10/27 06:31:08;;;;;;;;;;;;;;;10.98;73.90;99932.34;5177537;28;19931;-73
2022/10/27 06:33:58;;;;;;;;;;;;;;;10.98;72.97;99945.59;5177800;28;20402;-72
2022/10/27 06:36:48;;;;;;;;;;;;;;;10.96;73.23;99948.38;5179098;28;19928;-72
2022/10/27 06:39:40;;;;;;;;;;;;;;;10.98;73.59;99953.56;5179441;28;19968;-72
2022/10/27 06:42:30;;;;;;;;;;;;;;;11.03;73.19;99959.34;5198653;28;19936;-70
2022/10/27 06:45:33;;;;;;;;;;;;;;;10.67;73.09;99894.16;5172470;28;19991;-72
2022/10/27 06:48:23;;;;;;;;;;;;;;;11.04;73.33;99974.31;5187741;28;20082;-72
2022/10/27 06:51:13;;;;;;;;;;;;;;;11.07;73.34;99973.22;5187173;28;19928;-69
2022/10/27 06:54:03;;;;;;;;;;;;;;;11.13;73.67;99967.44;5183750;28;20130;-72
2022/10/27 06:56:53;;;;;;;;;;;;;;;11.26;73.92;99966.31;5179660;28;19921;-72
2022/10/27 06:59:43;;;;;;;;;;;;;;;11.34;73.84;99960.38;5174432;28;20299;-72
2022/10/27 07:02:32;;;;;;;;;;;;;;;11.36;74.06;99958.44;5177010;28;19952;-72
2022/10/27 07:05:23;;;;;;;;;;;;;;;11.44;73.99;99957.81;5178584;28;19940;-71
2022/10/27 07:08:13;;;;;;;;;;;;;;;11.55;73.87;99968.38;5184608;28;20434;-71
2022/10/27 07:11:02;;;;;;;;;;;;;;;11.64;74.22;99957.00;5200915;28;19964;-71
2022/10/27 07:13:53;;;;;;;;;;;;;;;11.87;75.16;99962.25;5187918;28;19936;-71
2022/10/27 07:16:45;;;;;;;;;;;;;;;12.21;74.35;99977.03;5191986;28;19925;-71
2022/10/27 07:19:35;;;;;;;;;;;;;;;12.41;74.03;99955.88;5189342;28;19929;-71
2022/10/27 07:22:25;;;;;;;;;;;;;;;12.46;73.95;99956.31;5189048;28;20612;-70
2022/10/27 07:25:15;;;;;;;;;;;;;;;12.49;73.77;99961.38;5173996;28;20367;-71
2022/10/27 07:28:06;;;;;;;;;;;;;;;12.73;75.43;99961.06;5188927;28;19943;-69
2022/10/27 07:30:56;;;;;;;;;;;;;;;13.02;75.13;99966.50;5184695;28;20378;-69
2022/10/27 07:33:46;;;;;;;;;;;;;;;13.30;75.39;99972.88;5186480;28;19936;-69
2022/10/27 07:36:36;;;;;;;;;;;;;;;13.84;75.06;99968.00;5184383;28;20401;-72
2022/10/27 07:39:25;;;;;;;;;;;;;;;14.62;72.62;99970.59;5186174;28;20444;-72
2022/10/27 07:42:16;;;;;;;;;;;;;;;15.26;70.42;99970.56;5194061;28;19933;-72
2022/10/27 07:45:06;;;;;;;;;;;;;;;15.92;68.24;99969.38;5190944;28;20290;-69
2022/10/27 07:47:57;;;;;;;;;;;;;;;16.17;66.96;99973.09;5191683;28;20302;-69
2022/10/27 07:50:47;;;;;;;;;;;;;;;16.64;65.59;99982.59;5187234;28;19920;-72
2022/10/27 07:53:42;;;;;;;;;;;;;;;17.16;63.91;99985.22;5188412;28;19936;-69
2022/10/27 07:56:35;;;;;;;;;;;;;;;17.40;62.83;99980.94;5183498;28;20290;-70
2022/10/27 07:59:25;;;;;;;;;;;;;;;17.83;62.54;99983.38;5187525;28;19925;-69
2022/10/27 08:02:15;;;;;;;;;;;;;;;17.94;61.50;99928.56;5180938;28;19936;-69
2022/10/27 08:05:06;;;;;;;;;;;;;;;18.48;60.86;99981.69;5185895;28;19928;-70
2022/10/27 08:07:59;;;;;;;;;;;;;;;19.19;60.58;99996.09;5187518;28;19979;-72
2022/10/27 08:10:49;;;;;;;;;;;;;;;19.55;57.05;99985.66;5191715;28;20634;-70
2022/10/27 08:13:39;;;;;;;;;;;;;;;19.63;57.94;99988.31;5192755;28;19925;-71
2022/10/27 08:16:30;;;;;;;;;;;;;;;19.74;58.34;99994.31;5188554;28;20390;-70
2022/10/27 08:19:20;;;;;;;;;;;;;;;20.18;56.45;100005.25;5188318;28;19948;-71
2022/10/27 08:22:10;;;;;;;;;;;;;;;20.49;55.33;99994.34;5186675;28;20374;-70
2022/10/27 08:25:02;;;;;;;;;;;;;;;20.32;55.60;99995.53;5170835;28;19972;-70
2022/10/27 08:27:55;;;;;;;;;;;;;;;20.88;55.04;99987.91;5182265;28;20014;-70
2022/10/27 08:30:45;;;;;;;;;;;;;;;21.19;55.00;99989.53;5183172;28;20006;-71
2022/10/27 08:33:41;;;;;;;;;;;;;;;20.87;55.25;99991.63;5184371;28;19955;-73
2022/10/27 08:36:37;;;;;;;;;;;;;;;21.41;53.96;99993.16;5190647;28;20475;-71
2022/10/27 08:39:27;;;;;;;;;;;;;;;21.62;54.09;99986.97;5193152;28;20303;-71
2022/10/27 08:42:30;;;;;;;;;;;;;;;21.48;53.95;99988.69;5186179;28;19929;-71
2022/10/27 08:45:33;;;;;;;;;;;;;;;21.73;53.19;99979.19;5183936;28;19975;-70
2022/10/27 08:48:26;;;;;;;;;;;;;;;21.85;53.81;99990.31;5180341;28;19921;-70
2022/10/27 08:51:18;;;;;;;;;;;;;;;21.85;53.34;99984.91;5181184;28;19920;-72
2022/10/27 08:54:09;;;;;;;;;;;;;;;22.20;52.33;99971.56;5182439;28;19964;-70
2022/10/27 08:57:03;;;;;;;;;;;;;;;22.10;53.47;99977.25;5174219;28;19936;-73
2022/10/27 08:59:54;;;;;;;;;;;;;;;22.50;53.01;99973.03;5161901;28;19935;-69
2022/10/27 09:03:00;;;;;;;;;;;;;;;22.63;51.70;99972.28;5177166;28;19929;-70
2022/10/27 09:05:49;;;;;;;;;;;;;;;22.46;51.95;99982.56;5186803;28;19940;-71
2022/10/27 09:08:58;;;;;;;;;;;;;;;22.85;50.86;99985.72;5176017;28;20042;-71
2022/10/27 09:11:57;;;;;;;;;;;;;;;23.12;51.56;99987.56;5189672;28;20356;-70
2022/10/27 09:15:02;;;;;;;;;;;;;;;23.21;49.73;99969.25;5177265;28;19971;-69
2022/10/27 09:18:02;;;;;;;;;;;;;;;23.35;49.99;99989.94;5176601;28;20418;-70
2022/10/27 09:20:54;;;;;;;;;;;;;;;23.54;49.58;99982.06;5191103;28;19929;-70
2022/10/27 09:23:49;;;;;;;;;;;;;;;23.71;50.16;99979.84;5176505;28;20324;-71
2022/10/27 09:26:40;;;;;;;;;;;;;;;23.90;49.08;99973.63;5189125;28;19974;-71
2022/10/27 09:29:32;;;;;;;;;;;;;;;23.78;50.34;99973.44;5169226;28;19928;-71
2022/10/27 09:32:22;;;;;;;;;;;;;;;24.00;48.42;99973.22;5179383;28;19931;-72
2022/10/27 09:35:12;;;;;;;;;;;;;;;23.96;48.02;99969.28;5149867;28;19971;-72
2022/10/27 09:38:10;;;;;;;;;;;;;;;23.39;50.41;99974.97;5154866;28;20079;-72
2022/10/27 09:41:00;;;;;;;;;;;;;;;23.63;49.71;99961.91;5182203;28;19985;-72
2022/10/27 09:43:54;;;;;;;;;;;;;;;23.97;47.69;99977.19;5183322;28;20326;-72
2022/10/27 09:46:49;;;;;;;;;;;;;;;23.82;48.51;99968.44;5187584;28;19935;-72
2022/10/27 09:49:40;;;;;;;;;;;;;;;24.14;47.74;99966.81;5174418;28;19978;-72
2022/10/27 09:52:39;;;;;;;;;;;;;;;24.41;47.66;99969.53;5190642;28;20146;-72
2022/10/27 09:55:50;;;;;;;;;;;;;;;23.35;48.51;99960.19;5192049;28;20114;-72
2022/10/27 09:58:42;;;;;;;;;;;;;;;23.25;50.37;99953.50;5173191;28;19928;-72
2022/10/27 10:01:38;;;;;;;;;;;;;;;23.77;49.90;99952.78;5186868;28;20034;-72
2022/10/27 10:04:31;;;;;;;;;;;;;;;23.73;48.11;99953.41;5171200;28;19982;-72
2022/10/27 10:07:29;;;;;;;;;;;;;;;23.67;49.74;99955.91;5181560;28;20054;-72
2022/10/27 10:10:19;;;;;;;;;;;;;;;23.79;47.64;99948.00;5178046;28;19925;-72
2022/10/27 10:13:13;;;;;;;;;;;;;;;23.14;49.75;99957.59;5165198;28;20016;-72
2022/10/27 10:16:08;;;;;;;;;;;;;;;22.91;49.24;99947.91;5180292;28;19936;-72
2022/10/27 10:19:25;;;;;;;;;;;;;;;21.93;51.57;99948.88;5182516;28;19952;-72
2022/10/27 10:22:34;;;;;;;;;;;;;;;22.11;52.43;99951.09;5181230;28;20022;-71
2022/10/27 10:25:32;;;;;;;;;;;;;;;22.74;51.73;99947.38;5163601;28;20064;-74
2022/10/27 10:28:36;;;;;;;;;;;;;;;21.79;54.08;99945.22;5163710;28;20393;-72
2022/10/27 10:31:27;;;;;;;;;;;;;;;21.43;53.85;99935.31;5163959;28;20580;-73
2022/10/27 10:34:28;;;;;;;;;;;;;;;21.74;53.29;99940.38;5167752;28;19990;-73
2022/10/27 10:37:41;;;;;;;;;;;;;;;21.22;55.04;99927.97;5170647;28;19955;-73
2022/10/27 10:40:31;;;;;;;;;;;;;;;21.53;55.12;99927.72;5187400;28;20835;-73
2022/10/27 10:43:22;;;;;;;;;;;;;;;21.24;54.78;99930.47;5175861;28;20034;-72
2022/10/27 10:46:21;;;;;;;;;;;;;;;21.17;54.78;99922.31;5176671;28;19944;-73
2022/10/27 10:49:21;;;;;;;;;;;;;;;21.36;55.75;99920.91;5183149;28;19921;-73
2022/10/27 10:52:17;;;;;;;;;;;;;;;21.18;55.38;99923.16;5196491;28;19936;-72
2022/10/27 10:55:22;;;;;;;;;;;;;;;21.28;56.08;99915.59;5181596;28;20402;-73
2022/10/27 10:58:14;;;;;;;;;;;;;;;21.26;56.61;99909.56;5188497;28;20407;-72
2022/10/27 11:01:06;;;;;;;;;;;;;;;21.45;56.17;99900.84;5186300;28;19936;-72
2022/10/27 11:03:56;;;;;;;;;;;;;;;21.39;55.49;99907.03;5195382;28;19928;-72
2022/10/27 11:07:02;;;;;;;;;;;;;;;21.92;55.45;99903.97;5187719;28;19928;-72
2022/10/27 11:09:58;;;;;;;;;;;;;;;22.12;55.46;99902.28;5177191;28;20409;-72
2022/10/27 11:12:53;;;;;;;;;;;;;;;22.01;55.14;99902.81;5182543;28;20059;-72
2022/10/27 11:15:58;;;;;;;;;;;;;;;22.35;55.83;99899.34;5181423;28;20303;-72
2022/10/27 11:18:53;;;;;;;;;;;;;;;22.44;53.80;99898.13;5181733;28;19974;-72
2022/10/27 11:21:55;;;;;;;;;;;;;;;22.45;54.10;99899.84;5181125;28;21711;-72
2022/10/27 11:24:45;;;;;;;;;;;;;;;22.63;54.56;99901.16;5161641;28;19936;-72
2022/10/27 11:27:41;;;;;;;;;;;;;;;22.72;54.24;99889.16;5175542;28;20030;-72
2022/10/27 11:30:35;;;;;;;;;;;;;;;22.57;53.80;99886.56;5189982;28;20866;-73
2022/10/27 11:33:44;;;;;;;;;;;;;;;22.65;53.75;99889.13;5175543;28;19929;-72
2022/10/27 11:36:37;;;;;;;;;;;;;;;22.58;53.66;99872.03;5191466;28;19929;-72
2022/10/27 11:39:35;;;;;;;;;;;;;;;22.56;53.99;99871.41;5189886;28;20572;-72
2022/10/27 11:42:29;;;;;;;;;;;;;;;22.67;53.17;99856.47;5190224;28;20022;-72
2022/10/27 11:45:23;;;;;;;;;;;;;;;22.83;53.58;99875.06;5175816;28;19944;-73
2022/10/27 11:48:16;;;;;;;;;;;;;;;22.90;53.22;99870.50;5189192;28;20402;-72
2022/10/27 11:51:16;;;;;;;;;;;;;;;22.76;52.23;99866.09;5185671;28;20066;-72
2022/10/27 11:54:05;;;;;;;;;;;;;;;23.21;52.32;99856.50;5181972;28;20478;-72
2022/10/27 11:57:00;;;;;;;;;;;;;;;23.15;51.88;99851.91;5183518;28;20429;-72
2022/10/27 12:00:01;;;;;;;;;;;;;;;23.04;53.18;99848.94;5179806;28;20003;-72
2022/10/27 12:03:04;;;;;;;;;;;;;;;23.16;53.43;99842.72;5182299;28;19932;-72
2022/10/27 12:06:07;;;;;;;;;;;;;;;23.23;51.48;99845.44;5180996;28;19928;-72
2022/10/27 12:09:26;;;;;;;;;;;;;;;23.49;51.73;99851.94;5181574;28;19928;-72
2022/10/27 12:12:23;;;;;;;;;;;;;;;23.05;52.85;99847.91;5178728;28;19929;-72
2022/10/27 12:15:25;;;;;;;;;;;;;;;23.35;51.02;99846.53;5181535;28;19936;-72
2022/10/27 12:18:21;;;;;;;;;;;;;;;23.32;52.39;99838.81;5164636;28;19936;-72
2022/10/27 12:21:17;;;;;;;;;;;;;;;23.28;50.73;99829.44;5169432;28;19936;-72
2022/10/27 12:24:15;;;;;;;;;;;;;;;23.52;50.60;99825.28;5156590;28;20485;-72
2022/10/27 12:27:11;;;;;;;;;;;;;;;23.44;50.26;99822.78;5180807;28;19936;-72
2022/10/27 12:30:21;;;;;;;;;;;;;;;23.62;49.51;99820.28;5190998;28;20094;-73
2022/10/27 12:33:27;;;;;;;;;;;;;;;23.37;50.99;99816.53;5190210;28;19959;-73
2022/10/27 12:36:24;;;;;;;;;;;;;;;23.28;51.02;99817.75;5173811;28;21022;-72
2022/10/27 12:39:32;;;;;;;;;;;;;;;23.36;50.71;99818.41;5174361;28;19944;-72
2022/10/27 12:42:22;;;;;;;;;;;;;;;23.43;51.27;99813.00;5189195;28;20030;-73
2022/10/27 12:45:15;;;;;;;;;;;;;;;23.69;49.24;99812.19;5181239;28;19928;-72
2022/10/27 12:48:25;;;;;;;;;;;;;;;23.63;50.50;99816.53;5170757;28;19927;-72
2022/10/27 12:51:21;;;;;;;;;;;;;;;23.43;49.55;99808.41;5185273;28;19927;-72
2022/10/27 12:54:32;;;;;;;;;;;;;;;23.78;49.34;99813.66;5186053;28;19921;-72
2022/10/27 12:57:22;;;;;;;;;;;;;;;23.75;48.51;99807.84;5183208;28;19936;-72
2022/10/27 13:00:13;;;;;;;;;;;;;;;23.86;46.76;99796.34;5170833;28;19921;-72
2022/10/27 13:03:22;;;;;;;;;;;;;;;23.86;48.20;99796.34;5182429;28;19936;-72
2022/10/27 13:06:25;;;;;;;;;;;;;;;24.05;48.07;99798.19;5180489;28;20038;-72
2022/10/27 13:09:26;;;;;;;;;;;;;;;23.87;49.38;99788.03;5185087;28;19943;-72
2022/10/27 13:12:39;;;;;;;;;;;;;;;23.68;48.79;99783.47;5180968;28;19944;-72
2022/10/27 13:15:43;;;;;;;;;;;;;;;23.77;47.64;99787.59;5184722;28;19928;-73
2022/10/27 13:18:36;;;;;;;;;;;;;;;23.61;48.38;99790.75;5179358;28;20190;-72
2022/10/27 13:21:42;;;;;;;;;;;;;;;23.53;49.80;99778.22;5182650;28;19936;-73
2022/10/27 13:24:41;;;;;;;;;;;;;;;23.70;48.83;99769.72;5177745;28;20000;-72
2022/10/27 13:27:50;;;;;;;;;;;;;;;23.66;49.17;99772.81;5184719;28;19936;-72
2022/10/27 13:30:42;;;;;;;;;;;;;;;23.71;45.57;99766.81;5160352;28;19929;-72
2022/10/27 13:33:32;;;;;;;;;;;;;;;24.10;44.34;99762.31;5190406;28;19929;-72
2022/10/27 13:36:22;;;;;;;;;;;;;;;24.07;43.73;99757.34;5184664;28;20745;-73
2022/10/27 13:39:18;;;;;;;;;;;;;;;23.99;44.36;99763.81;5189603;28;20247;-73
2022/10/27 13:42:13;;;;;;;;;;;;;;;24.15;44.48;99759.81;5162172;28;19928;-72
2022/10/27 13:45:24;;;;;;;;;;;;;;;24.25;45.21;99760.19;5189513;28;19932;-72
2022/10/27 13:48:17;;;;;;;;;;;;;;;24.26;45.74;99755.59;5187201;28;20016;-72
2022/10/27 13:51:25;;;;;;;;;;;;;;;24.00;45.82;99761.94;5187695;28;19936;-72
2022/10/27 13:54:44;;;;;;;;;;;;;;;24.19;45.50;99752.94;5185298;28;19939;-72
2022/10/27 13:57:53;;;;;;;;;;;;;;;24.05;46.12;99765.69;5169110;28;19936;-72
2022/10/27 14:01:02;;;;;;;;;;;;;;;24.49;44.57;99763.25;5171390;28;20387;-72
2022/10/27 14:04:22;;;;;;;;;;;;;;;24.02;46.16;99757.16;5186087;28;19937;-72
2022/10/27 14:07:12;;;;;;;;;;;;;;;24.00;47.45;99760.06;5158693;28;20319;-72
2022/10/27 14:10:03;;;;;;;;;;;;;;;23.86;47.51;99753.03;5169141;28;20366;-72
2022/10/27 14:12:53;;;;;;;;;;;;;;;23.97;45.59;99748.81;5168585;28;20291;-73
2022/10/27 14:15:44;;;;;;;;;;;;;;;23.85;46.28;99756.78;5181442;28;20413;-72
2022/10/27 14:18:37;;;;;;;;;;;;;;;23.93;46.97;99761.97;5183490;28;20072;-72
2022/10/27 14:21:28;;;;;;;;;;;;;;;23.92;49.13;99761.13;5162558;28;19936;-72
2022/10/27 14:24:20;;;;;;;;;;;;;;;24.02;47.42;99759.88;5178737;28;20311;-72
2022/10/27 14:27:15;;;;;;;;;;;;;;;24.04;47.63;99747.78;5180576;28;19947;-73
2022/10/27 14:30:15;;;;;;;;;;;;;;;23.94;47.34;99752.81;5168297;28;20216;-72
2022/10/27 14:33:21;;;;;;;;;;;;;;;23.86;48.44;99751.13;5182711;28;19936;-72
2022/10/27 14:36:19;;;;;;;;;;;;;;;23.65;48.21;99718.88;5176000;28;19928;-72
2022/10/27 14:39:10;;;;;;;;;;;;;;;23.75;48.50;99738.25;5179703;28;20030;-72
2022/10/27 14:42:01;;;;;;;;;;;;;;;23.58;48.66;99737.84;5187330;28;19936;-72
2022/10/27 14:44:55;;;;;;;;;;;;;;;23.67;47.81;99738.44;5173278;28;20014;-72
2022/10/27 14:47:52;;;;;;;;;;;;;;;23.63;48.40;99750.72;5168321;28;20378;-72
2022/10/27 14:50:42;;;;;;;;;;;;;;;23.58;48.37;99751.38;5181161;28;19958;-72
2022/10/27 14:53:35;;;;;;;;;;;;;;;23.46;49.00;99747.63;5165440;28;19928;-72
2022/10/27 14:56:26;;;;;;;;;;;;;;;23.47;49.58;99745.75;5180863;28;20014;-72
2022/10/27 14:59:20;;;;;;;;;;;;;;;23.42;49.97;99747.22;5177718;28;20047;-71
2022/10/27 15:02:10;;;;;;;;;;;;;;;23.35;50.75;99753.69;5183128;28;20414;-71
2022/10/27 15:05:10;;;;;;;;;;;;;;;23.25;51.19;99743.28;5149923;28;19959;-71
2022/10/27 15:08:06;;;;;;;;;;;;;;;23.28;50.57;99747.41;5168036;28;20407;-71